Charles M Schulz - Sonoma County Information

FAA: STS - ICAO: KSTS

Charles M Schulz - Sonoma County (Airport) Location

State California
County Sonoma
City Santa Rosa
Charles M Schulz - Sonoma County (Airport) is 6 miles northwest of Santa Rosa, CA.
Latitude 38-30-34.9000N
Longitude 122-48-46.4000W
Elevation 128ft

Charles M Schulz - Sonoma County METARs

METAR KSTS 190853Z AUTO 35005KT 10SM CLR 19/09 A3002 RMK AO2 SLP159 T01890094 58000
Altimeter 30.02"
Temperature 18.9°C (66.0°F)
Wind 350° at 5KT
Clouds Skies are clear.
Visibility 10.0mi
Time observed: 2022-05-19T08:53:00Z

Charles M Schulz - Sonoma County (Airport) Details

Status Operational
Activation N/A
Ownership Public
Usage Public
Chart SAN FRANCISCO
ATC on-site Yes
Beacon schedule sunset-sunrise
Beacon color clear green

Charles M Schulz - Sonoma County (Airport) Contacts

Owner SONOMA COUNTY
Owner address 2290 AIRPORT BLVD, SANTA ROSA, CA 95403
Owner phone 707-565-7243
Manager KEVIN FITZGERALD
Manager address 1165 MONTGOMERY DR., SANTA ROSA, CA 95405
Manager phone (707) 525-5255

Charles M Schulz - Sonoma County Radio Frequencies

Charles M Schulz - Sonoma County (Airport) Radio Frequencies

UNICOM 122.95
Common traffic advisory frequency (CTAF) 118.5